<?xml version="1.0" encoding="UTF-8" standalone="no" ?>
<gpx xmlns="http://www.topografix.com/GPX/1/1" xmlns:xsi="http://www.w3.org/2001/XMLSchema-instance" xsi:schemaLocation="http://www.topografix.com/GPX/1/1 http://www.topografix.com/GPX/1/1/gpx.xsd" version="1.1" creator="VisuGPX - https://www.visugpx.com">
  <metadata>
    <name>Aosta jour 1</name>
    <desc><![CDATA[Tour prevu à Aoste, ca va piquer les gambettes]]></desc>
  </metadata>
  <trk>
    <name><![CDATA[20171027222443-xvM4r]]></name>
    <trkseg>
      <trkpt lat="45.72438" lon="7.14248">
        <ele>1687</ele>
        <time>2017-06-10T17:54:51Z</time>
      </trkpt>
      <trkpt lat="45.72437" lon="7.14255">
        <ele>1676</ele>
        <time>2017-06-10T17:54:52Z</time>
      </trkpt>
      <trkpt lat="45.72435" lon="7.14263">
        <ele>1675</ele>
        <time>2017-06-10T17:54:53Z</time>
      </trkpt>
      <trkpt lat="45.72434" lon="7.1427">
        <ele>1674</ele>
        <time>2017-06-10T17:54:54Z</time>
      </trkpt>
      <trkpt lat="45.72432" lon="7.14277">
        <ele>1674</ele>
        <time>2017-06-10T17:54:55Z</time>
      </trkpt>
      <trkpt lat="45.72431" lon="7.14283">
        <ele>1673</ele>
        <time>2017-06-10T17:54:56Z</time>
      </trkpt>
      <trkpt lat="45.7243" lon="7.14289">
        <ele>1672</ele>
        <time>2017-06-10T17:54:57Z</time>
      </trkpt>
      <trkpt lat="45.72429" lon="7.14295">
        <ele>1671</ele>
        <time>2017-06-10T17:54:58Z</time>
      </trkpt>
      <trkpt lat="45.72427" lon="7.14302">
        <ele>1670</ele>
        <time>2017-06-10T17:54:59Z</time>
      </trkpt>
      <trkpt lat="45.72424" lon="7.14314">
        <ele>1667</ele>
        <time>2017-06-10T17:55:01Z</time>
      </trkpt>
      <trkpt lat="45.72421" lon="7.14319">
        <ele>1665</ele>
        <time>2017-06-10T17:55:02Z</time>
      </trkpt>
      <trkpt lat="45.72416" lon="7.14326">
        <ele>1660</ele>
        <time>2017-06-10T17:55:04Z</time>
      </trkpt>
      <trkpt lat="45.72413" lon="7.14329">
        <ele>1659</ele>
        <time>2017-06-10T17:55:05Z</time>
      </trkpt>
      <trkpt lat="45.7241" lon="7.14329">
        <ele>1659</ele>
        <time>2017-06-10T17:55:06Z</time>
      </trkpt>
      <trkpt lat="45.72409" lon="7.14329">
        <ele>1659</ele>
        <time>2017-06-10T17:55:07Z</time>
      </trkpt>
      <trkpt lat="45.72409" lon="7.1433">
        <ele>1659</ele>
        <time>2017-06-10T17:55:08Z</time>
      </trkpt>
      <trkpt lat="45.72409" lon="7.14332">
        <ele>1659</ele>
        <time>2017-06-10T17:55:09Z</time>
      </trkpt>
      <trkpt lat="45.72407" lon="7.14333">
        <ele>1654</ele>
        <time>2017-06-10T17:55:11Z</time>
      </trkpt>
      <trkpt lat="45.72403" lon="7.14334">
        <ele>1652</ele>
        <time>2017-06-10T17:55:13Z</time>
      </trkpt>
      <trkpt lat="45.72398" lon="7.1434">
        <ele>1650</ele>
        <time>2017-06-10T17:55:15Z</time>
      </trkpt>
      <trkpt lat="45.72392" lon="7.14348">
        <ele>1647</ele>
        <time>2017-06-10T17:55:17Z</time>
      </trkpt>
      <trkpt lat="45.72389" lon="7.14353">
        <ele>1646</ele>
        <time>2017-06-10T17:55:18Z</time>
      </trkpt>
      <trkpt lat="45.72388" lon="7.14358">
        <ele>1645</ele>
        <time>2017-06-10T17:55:19Z</time>
      </trkpt>
      <trkpt lat="45.72386" lon="7.14363">
        <ele>1645</ele>
        <time>2017-06-10T17:55:20Z</time>
      </trkpt>
      <trkpt lat="45.72384" lon="7.14368">
        <ele>1644</ele>
        <time>2017-06-10T17:55:21Z</time>
      </trkpt>
      <trkpt lat="45.72383" lon="7.14373">
        <ele>1643</ele>
        <time>2017-06-10T17:55:22Z</time>
      </trkpt>
      <trkpt lat="45.72381" lon="7.14378">
        <ele>1642</ele>
        <time>2017-06-10T17:55:23Z</time>
      </trkpt>
      <trkpt lat="45.72379" lon="7.14383">
        <ele>1642</ele>
        <time>2017-06-10T17:55:24Z</time>
      </trkpt>
      <trkpt lat="45.72378" lon="7.14386">
        <ele>1641</ele>
        <time>2017-06-10T17:55:25Z</time>
      </trkpt>
      <trkpt lat="45.72376" lon="7.14388">
        <ele>1641</ele>
        <time>2017-06-10T17:55:26Z</time>
      </trkpt>
      <trkpt lat="45.72375" lon="7.14389">
        <ele>1641</ele>
        <time>2017-06-10T17:55:27Z</time>
      </trkpt>
      <trkpt lat="45.72374" lon="7.1439">
        <ele>1641</ele>
        <time>2017-06-10T17:55:29Z</time>
      </trkpt>
      <trkpt lat="45.7236" lon="7.14394">
        <ele>1639</ele>
        <time>2017-06-10T17:56:01Z</time>
      </trkpt>
      <trkpt lat="45.72354" lon="7.14402">
        <ele>1637</ele>
        <time>2017-06-10T17:56:04Z</time>
      </trkpt>
      <trkpt lat="45.72346" lon="7.14411">
        <ele>1634</ele>
        <time>2017-06-10T17:56:06Z</time>
      </trkpt>
      <trkpt lat="45.72341" lon="7.14415">
        <ele>1632</ele>
        <time>2017-06-10T17:56:07Z</time>
      </trkpt>
      <trkpt lat="45.72335" lon="7.14418">
        <ele>1628</ele>
        <time>2017-06-10T17:56:08Z</time>
      </trkpt>
      <trkpt lat="45.7233" lon="7.1442">
        <ele>1624</ele>
        <time>2017-06-10T17:56:09Z</time>
      </trkpt>
      <trkpt lat="45.72323" lon="7.14423">
        <ele>1620</ele>
        <time>2017-06-10T17:56:10Z</time>
      </trkpt>
      <trkpt lat="45.72316" lon="7.14423">
        <ele>1617</ele>
        <time>2017-06-10T17:56:11Z</time>
      </trkpt>
      <trkpt lat="45.7231" lon="7.14424">
        <ele>1615</ele>
        <time>2017-06-10T17:56:12Z</time>
      </trkpt>
      <trkpt lat="45.72304" lon="7.14425">
        <ele>1613</ele>
        <time>2017-06-10T17:56:13Z</time>
      </trkpt>
      <trkpt lat="45.723" lon="7.14425">
        <ele>1612</ele>
        <time>2017-06-10T17:56:14Z</time>
      </trkpt>
      <trkpt lat="45.72297" lon="7.14427">
        <ele>1611</ele>
        <time>2017-06-10T17:56:15Z</time>
      </trkpt>
      <trkpt lat="45.72296" lon="7.14428">
        <ele>1611</ele>
        <time>2017-06-10T17:56:16Z</time>
      </trkpt>
      <trkpt lat="45.72297" lon="7.14432">
        <ele>1611</ele>
        <time>2017-06-10T17:56:18Z</time>
      </trkpt>
      <trkpt lat="45.72339" lon="7.14463">
        <ele>1625</ele>
        <time>2017-06-10T17:56:37Z</time>
      </trkpt>
      <trkpt lat="45.72379" lon="7.14428">
        <ele>1631</ele>
        <time>2017-06-10T17:56:53Z</time>
      </trkpt>
      <trkpt lat="45.72385" lon="7.1443">
        <ele>1631</ele>
        <time>2017-06-10T17:56:55Z</time>
      </trkpt>
      <trkpt lat="45.72389" lon="7.14433">
        <ele>1632</ele>
        <time>2017-06-10T17:56:57Z</time>
      </trkpt>
      <trkpt lat="45.72394" lon="7.14442">
        <ele>1632</ele>
        <time>2017-06-10T17:57:00Z</time>
      </trkpt>
      <trkpt lat="45.72393" lon="7.1445">
        <ele>1631</ele>
        <time>2017-06-10T17:57:02Z</time>
      </trkpt>
      <trkpt lat="45.72373" lon="7.14514">
        <ele>1631</ele>
        <time>2017-06-10T17:57:16Z</time>
      </trkpt>
      <trkpt lat="45.72364" lon="7.14531">
        <ele>1631</ele>
        <time>2017-06-10T17:57:19Z</time>
      </trkpt>
      <trkpt lat="45.7232" lon="7.14583">
        <ele>1619</ele>
        <time>2017-06-10T17:57:32Z</time>
      </trkpt>
      <trkpt lat="45.72308" lon="7.1459">
        <ele>1620</ele>
        <time>2017-06-10T17:57:35Z</time>
      </trkpt>
      <trkpt lat="45.7229" lon="7.14595">
        <ele>1615</ele>
        <time>2017-06-10T17:57:39Z</time>
      </trkpt>
      <trkpt lat="45.72265" lon="7.14616">
        <ele>1611</ele>
        <time>2017-06-10T17:57:44Z</time>
      </trkpt>
      <trkpt lat="45.72258" lon="7.14626">
        <ele>1611</ele>
        <time>2017-06-10T17:57:46Z</time>
      </trkpt>
      <trkpt lat="45.72255" lon="7.14644">
        <ele>1610</ele>
        <time>2017-06-10T17:57:49Z</time>
      </trkpt>
      <trkpt lat="45.72271" lon="7.14685">
        <ele>1612</ele>
        <time>2017-06-10T17:57:57Z</time>
      </trkpt>
      <trkpt lat="45.72301" lon="7.14756">
        <ele>1608</ele>
        <time>2017-06-10T17:58:09Z</time>
      </trkpt>
      <trkpt lat="45.7231" lon="7.1478">
        <ele>1607</ele>
        <time>2017-06-10T17:58:13Z</time>
      </trkpt>
      <trkpt lat="45.72312" lon="7.14786">
        <ele>1607</ele>
        <time>2017-06-10T17:58:14Z</time>
      </trkpt>
      <trkpt lat="45.72316" lon="7.14802">
        <ele>1606</ele>
        <time>2017-06-10T17:58:17Z</time>
      </trkpt>
      <trkpt lat="45.72336" lon="7.14819">
        <ele>1624</ele>
        <time>2017-06-10T17:58:23Z</time>
      </trkpt>
      <trkpt lat="45.72329" lon="7.14838">
        <ele>1607</ele>
        <time>2017-06-10T17:58:26Z</time>
      </trkpt>
      <trkpt lat="45.72323" lon="7.14849">
        <ele>1601</ele>
        <time>2017-06-10T17:58:28Z</time>
      </trkpt>
      <trkpt lat="45.72324" lon="7.14864">
        <ele>1598</ele>
        <time>2017-06-10T17:58:31Z</time>
      </trkpt>
      <trkpt lat="45.72325" lon="7.1487">
        <ele>1597</ele>
        <time>2017-06-10T17:58:32Z</time>
      </trkpt>
      <trkpt lat="45.72327" lon="7.14893">
        <ele>1598</ele>
        <time>2017-06-10T17:58:36Z</time>
      </trkpt>
      <trkpt lat="45.72328" lon="7.14902">
        <ele>1600</ele>
        <time>2017-06-10T17:58:41Z</time>
      </trkpt>
      <trkpt lat="45.72326" lon="7.14902">
        <ele>1600</ele>
        <time>2017-06-10T17:59:00Z</time>
      </trkpt>
      <trkpt lat="45.72323" lon="7.14914">
        <ele>1602</ele>
        <time>2017-06-10T17:59:05Z</time>
      </trkpt>
      <trkpt lat="45.72323" lon="7.14939">
        <ele>1597</ele>
        <time>2017-06-10T17:59:09Z</time>
      </trkpt>
      <trkpt lat="45.72324" lon="7.14957">
        <ele>1596</ele>
        <time>2017-06-10T17:59:12Z</time>
      </trkpt>
      <trkpt lat="45.72323" lon="7.1497">
        <ele>1597</ele>
        <time>2017-06-10T17:59:14Z</time>
      </trkpt>
      <trkpt lat="45.7232" lon="7.14984">
        <ele>1600</ele>
        <time>2017-06-10T17:59:16Z</time>
      </trkpt>
      <trkpt lat="45.72311" lon="7.15018">
        <ele>1602</ele>
        <time>2017-06-10T17:59:21Z</time>
      </trkpt>
      <trkpt lat="45.72312" lon="7.15029">
        <ele>1602</ele>
        <time>2017-06-10T17:59:23Z</time>
      </trkpt>
      <trkpt lat="45.72313" lon="7.15035">
        <ele>1603</ele>
        <time>2017-06-10T17:59:24Z</time>
      </trkpt>
      <trkpt lat="45.72316" lon="7.15041">
        <ele>1604</ele>
        <time>2017-06-10T17:59:25Z</time>
      </trkpt>
      <trkpt lat="45.7232" lon="7.15055">
        <ele>1607</ele>
        <time>2017-06-10T17:59:27Z</time>
      </trkpt>
      <trkpt lat="45.72318" lon="7.15069">
        <ele>1610</ele>
        <time>2017-06-10T17:59:29Z</time>
      </trkpt>
      <trkpt lat="45.7231" lon="7.15078">
        <ele>1609</ele>
        <time>2017-06-10T17:59:31Z</time>
      </trkpt>
      <trkpt lat="45.723" lon="7.15093">
        <ele>1613</ele>
        <time>2017-06-10T17:59:34Z</time>
      </trkpt>
      <trkpt lat="45.72291" lon="7.15109">
        <ele>1611</ele>
        <time>2017-06-10T17:59:37Z</time>
      </trkpt>
      <trkpt lat="45.72268" lon="7.15142">
        <ele>1607</ele>
        <time>2017-06-10T17:59:43Z</time>
      </trkpt>
      <trkpt lat="45.7226" lon="7.15195">
        <ele>1610</ele>
        <time>2017-06-10T17:59:52Z</time>
      </trkpt>
      <trkpt lat="45.72276" lon="7.15242">
        <ele>1611</ele>
        <time>2017-06-10T18:00:10Z</time>
      </trkpt>
      <trkpt lat="45.72283" lon="7.1526">
        <ele>1613</ele>
        <time>2017-06-10T18:00:16Z</time>
      </trkpt>
      <trkpt lat="45.72286" lon="7.15291">
        <ele>1614</ele>
        <time>2017-06-10T18:00:23Z</time>
      </trkpt>
      <trkpt lat="45.72285" lon="7.15293">
        <ele>1614</ele>
        <time>2017-06-10T18:00:24Z</time>
      </trkpt>
      <trkpt lat="45.72277" lon="7.15304">
        <ele>1611</ele>
        <time>2017-06-10T18:00:31Z</time>
      </trkpt>
      <trkpt lat="45.72273" lon="7.15309">
        <ele>1610</ele>
        <time>2017-06-10T18:00:38Z</time>
      </trkpt>
      <trkpt lat="45.72268" lon="7.15319">
        <ele>1607</ele>
        <time>2017-06-10T18:00:41Z</time>
      </trkpt>
      <trkpt lat="45.72274" lon="7.15395">
        <ele>1609</ele>
        <time>2017-06-10T18:00:57Z</time>
      </trkpt>
      <trkpt lat="45.72277" lon="7.15412">
        <ele>1608</ele>
        <time>2017-06-10T18:01:00Z</time>
      </trkpt>
      <trkpt lat="45.72276" lon="7.1543">
        <ele>1607</ele>
        <time>2017-06-10T18:01:02Z</time>
      </trkpt>
      <trkpt lat="45.72274" lon="7.15445">
        <ele>1608</ele>
        <time>2017-06-10T18:01:04Z</time>
      </trkpt>
      <trkpt lat="45.72269" lon="7.15471">
        <ele>1607</ele>
        <time>2017-06-10T18:01:08Z</time>
      </trkpt>
      <trkpt lat="45.7227" lon="7.15509">
        <ele>1601</ele>
        <time>2017-06-10T18:01:14Z</time>
      </trkpt>
      <trkpt lat="45.7227" lon="7.15556">
        <ele>1602</ele>
        <time>2017-06-10T18:01:22Z</time>
      </trkpt>
      <trkpt lat="45.72292" lon="7.15595">
        <ele>1600</ele>
        <time>2017-06-10T18:01:30Z</time>
      </trkpt>
      <trkpt lat="45.72316" lon="7.15649">
        <ele>1603</ele>
        <time>2017-06-10T18:01:40Z</time>
      </trkpt>
      <trkpt lat="45.72325" lon="7.15671">
        <ele>1603</ele>
        <time>2017-06-10T18:01:44Z</time>
      </trkpt>
      <trkpt lat="45.72326" lon="7.15678">
        <ele>1600</ele>
        <time>2017-06-10T18:01:45Z</time>
      </trkpt>
      <trkpt lat="45.72329" lon="7.15693">
        <ele>1594</ele>
        <time>2017-06-10T18:01:47Z</time>
      </trkpt>
      <trkpt lat="45.72335" lon="7.15715">
        <ele>1617</ele>
        <time>2017-06-10T18:01:50Z</time>
      </trkpt>
      <trkpt lat="45.72337" lon="7.15722">
        <ele>1616</ele>
        <time>2017-06-10T18:01:51Z</time>
      </trkpt>
      <trkpt lat="45.72342" lon="7.15746">
        <ele>1607</ele>
        <time>2017-06-10T18:01:55Z</time>
      </trkpt>
      <trkpt lat="45.72336" lon="7.15773">
        <ele>1608</ele>
        <time>2017-06-10T18:02:01Z</time>
      </trkpt>
      <trkpt lat="45.72356" lon="7.15842">
        <ele>1606</ele>
        <time>2017-06-10T18:02:16Z</time>
      </trkpt>
      <trkpt lat="45.72354" lon="7.15892">
        <ele>1607</ele>
        <time>2017-06-10T18:02:24Z</time>
      </trkpt>
      <trkpt lat="45.72356" lon="7.15952">
        <ele>1605</ele>
        <time>2017-06-10T18:02:32Z</time>
      </trkpt>
      <trkpt lat="45.72357" lon="7.1596">
        <ele>1605</ele>
        <time>2017-06-10T18:02:33Z</time>
      </trkpt>
      <trkpt lat="45.72358" lon="7.15984">
        <ele>1603</ele>
        <time>2017-06-10T18:02:36Z</time>
      </trkpt>
      <trkpt lat="45.72357" lon="7.16006">
        <ele>1595</ele>
        <time>2017-06-10T18:02:39Z</time>
      </trkpt>
      <trkpt lat="45.72359" lon="7.16021">
        <ele>1597</ele>
        <time>2017-06-10T18:02:41Z</time>
      </trkpt>
      <trkpt lat="45.7236" lon="7.16029">
        <ele>1597</ele>
        <time>2017-06-10T18:02:42Z</time>
      </trkpt>
      <trkpt lat="45.72365" lon="7.16048">
        <ele>1598</ele>
        <time>2017-06-10T18:02:45Z</time>
      </trkpt>
      <trkpt lat="45.72369" lon="7.16053">
        <ele>1599</ele>
        <time>2017-06-10T18:02:46Z</time>
      </trkpt>
      <trkpt lat="45.72374" lon="7.16057">
        <ele>1600</ele>
        <time>2017-06-10T18:02:47Z</time>
      </trkpt>
      <trkpt lat="45.72381" lon="7.16067">
        <ele>1602</ele>
        <time>2017-06-10T18:02:49Z</time>
      </trkpt>
      <trkpt lat="45.72385" lon="7.16079">
        <ele>1603</ele>
        <time>2017-06-10T18:02:51Z</time>
      </trkpt>
      <trkpt lat="45.72384" lon="7.16101">
        <ele>1593</ele>
        <time>2017-06-10T18:02:54Z</time>
      </trkpt>
      <trkpt lat="45.72384" lon="7.16109">
        <ele>1592</ele>
        <time>2017-06-10T18:02:55Z</time>
      </trkpt>
      <trkpt lat="45.72384" lon="7.16117">
        <ele>1591</ele>
        <time>2017-06-10T18:02:56Z</time>
      </trkpt>
      <trkpt lat="45.72385" lon="7.16124">
        <ele>1591</ele>
        <time>2017-06-10T18:02:57Z</time>
      </trkpt>
      <trkpt lat="45.72386" lon="7.16129">
        <ele>1591</ele>
        <time>2017-06-10T18:02:58Z</time>
      </trkpt>
      <trkpt lat="45.72392" lon="7.16139">
        <ele>1592</ele>
        <time>2017-06-10T18:03:00Z</time>
      </trkpt>
      <trkpt lat="45.72396" lon="7.16147">
        <ele>1593</ele>
        <time>2017-06-10T18:03:02Z</time>
      </trkpt>
      <trkpt lat="45.72391" lon="7.16176">
        <ele>1582</ele>
        <time>2017-06-10T18:03:08Z</time>
      </trkpt>
      <trkpt lat="45.72406" lon="7.16253">
        <ele>1579</ele>
        <time>2017-06-10T18:03:24Z</time>
      </trkpt>
      <trkpt lat="45.72416" lon="7.16284">
        <ele>1568</ele>
        <time>2017-06-10T18:03:29Z</time>
      </trkpt>
      <trkpt lat="45.72437" lon="7.1633">
        <ele>1598</ele>
        <time>2017-06-10T18:03:37Z</time>
      </trkpt>
      <trkpt lat="45.72448" lon="7.16353">
        <ele>1598</ele>
        <time>2017-06-10T18:03:42Z</time>
      </trkpt>
      <trkpt lat="45.72448" lon="7.16392">
        <ele>1596</ele>
        <time>2017-06-10T18:03:48Z</time>
      </trkpt>
      <trkpt lat="45.7245" lon="7.16473">
        <ele>1577</ele>
        <time>2017-06-10T18:04:02Z</time>
      </trkpt>
      <trkpt lat="45.72456" lon="7.1649">
        <ele>1578</ele>
        <time>2017-06-10T18:04:05Z</time>
      </trkpt>
      <trkpt lat="45.72482" lon="7.16563">
        <ele>1581</ele>
        <time>2017-06-10T18:04:19Z</time>
      </trkpt>
      <trkpt lat="45.72499" lon="7.16604">
        <ele>1594</ele>
        <time>2017-06-10T18:04:48Z</time>
      </trkpt>
      <trkpt lat="45.72502" lon="7.16605">
        <ele>1610</ele>
        <time>2017-06-10T18:04:50Z</time>
      </trkpt>
      <trkpt lat="45.72502" lon="7.16605">
        <ele>1610</ele>
        <time>2017-06-10T18:04:55Z</time>
      </trkpt>
      <trkpt lat="45.72512" lon="7.16601">
        <ele>1611</ele>
        <time>2017-06-10T18:05:05Z</time>
      </trkpt>
      <trkpt lat="45.72523" lon="7.16602">
        <ele>1615</ele>
        <time>2017-06-10T18:05:07Z</time>
      </trkpt>
      <trkpt lat="45.72543" lon="7.16625">
        <ele>1623</ele>
        <time>2017-06-10T18:05:17Z</time>
      </trkpt>
      <trkpt lat="45.72539" lon="7.16627">
        <ele>1622</ele>
        <time>2017-06-10T18:05:28Z</time>
      </trkpt>
      <trkpt lat="45.72538" lon="7.16627">
        <ele>1622</ele>
        <time>2017-06-10T18:05:29Z</time>
      </trkpt>
      <trkpt lat="45.72534" lon="7.16627">
        <ele>1621</ele>
        <time>2017-06-10T18:05:34Z</time>
      </trkpt>
      <trkpt lat="45.72534" lon="7.16629">
        <ele>1622</ele>
        <time>2017-06-10T18:05:49Z</time>
      </trkpt>
      <trkpt lat="45.7253" lon="7.16629">
        <ele>1621</ele>
        <time>2017-06-10T18:05:51Z</time>
      </trkpt>
      <trkpt lat="45.72525" lon="7.16629">
        <ele>1620</ele>
        <time>2017-06-10T18:05:54Z</time>
      </trkpt>
      <trkpt lat="45.72484" lon="7.16623">
        <ele>1596</ele>
        <time>2017-06-10T18:06:06Z</time>
      </trkpt>
      <trkpt lat="45.72467" lon="7.16624">
        <ele>1594</ele>
        <time>2017-06-10T18:06:08Z</time>
      </trkpt>
      <trkpt lat="45.72453" lon="7.16627">
        <ele>1592</ele>
        <time>2017-06-10T18:06:10Z</time>
      </trkpt>
      <trkpt lat="45.72426" lon="7.16643">
        <ele>1595</ele>
        <time>2017-06-10T18:06:15Z</time>
      </trkpt>
      <trkpt lat="45.72412" lon="7.16648">
        <ele>1583</ele>
        <time>2017-06-10T18:06:18Z</time>
      </trkpt>
      <trkpt lat="45.72403" lon="7.1665">
        <ele>1581</ele>
        <time>2017-06-10T18:06:20Z</time>
      </trkpt>
      <trkpt lat="45.72389" lon="7.16654">
        <ele>1577</ele>
        <time>2017-06-10T18:06:23Z</time>
      </trkpt>
      <trkpt lat="45.72366" lon="7.16659">
        <ele>1572</ele>
        <time>2017-06-10T18:06:28Z</time>
      </trkpt>
      <trkpt lat="45.72336" lon="7.16677">
        <ele>1584</ele>
        <time>2017-06-10T18:06:35Z</time>
      </trkpt>
      <trkpt lat="45.72322" lon="7.16686">
        <ele>1569</ele>
        <time>2017-06-10T18:06:38Z</time>
      </trkpt>
      <trkpt lat="45.72313" lon="7.16697">
        <ele>1568</ele>
        <time>2017-06-10T18:06:42Z</time>
      </trkpt>
      <trkpt lat="45.72311" lon="7.16698">
        <ele>1568</ele>
        <time>2017-06-10T18:07:02Z</time>
      </trkpt>
      <trkpt lat="45.72313" lon="7.16697">
        <ele>1568</ele>
        <time>2017-06-10T18:08:03Z</time>
      </trkpt>
      <trkpt lat="45.7231" lon="7.16697">
        <ele>1567</ele>
        <time>2017-06-10T18:08:43Z</time>
      </trkpt>
    </trkseg>
  </trk>
</gpx>